Time;durP1;ratioP1;P1;durP2;ratioP2;P2;SDS_P1;SDS_P2;PMS_P1;PMS_P2;Temp;Humidity;BMP_temperature;BMP_pressure;BME280_temperature;BME280_humidity;BME280_pressure;Samples;Min_cycle;Max_cycle;Signal;HPM_P1;HPM_P2
2022/11/04 00:01:30;;;;;;;7.80;5.05;;;;;;;10.54;100.00;67939.03;5033275;28;20044;-87
2022/11/04 00:03:55;;;;;;;7.53;4.50;;;;;;;;;;5046600;28;20071;-88
2022/11/04 00:06:21;;;;;;;7.68;5.32;;;;;;;10.49;100.00;67938.69;5035563;28;20509;-86
2022/11/04 00:08:48;;;;;;;8.52;4.72;;;;;;;10.46;100.00;67935.84;5044727;28;20041;-86
2022/11/04 00:13:57;;;;;;;9.25;5.57;;;;;;;10.43;100.00;67932.44;5049847;28;20035;-86
2022/11/04 00:19:06;;;;;;;7.35;5.63;;;;;;;10.38;100.00;67929.44;5049183;28;20075;-86
2022/11/04 00:29:43;;;;;;;8.43;5.88;;;;;;;;;;5039622;28;20099;-86
2022/11/04 00:34:53;;;;;;;8.00;5.18;;;;;;;10.34;100.00;67916.91;5029274;28;20741;-86
2022/11/04 00:37:18;;;;;;;8.77;6.47;;;;;;;10.29;100.00;67917.13;5036187;28;20049;-87
2022/11/04 00:39:44;;;;;;;9.38;6.50;;;;;;;10.31;100.00;67921.50;5036279;28;20041;-87
2022/11/04 00:42:09;;;;;;;11.15;8.23;;;;;;;10.32;100.00;67922.63;5042807;28;20045;-87
2022/11/04 00:44:35;;;;;;;10.43;7.18;;;;;;;10.34;100.00;67924.91;5046079;28;20108;-87
2022/11/04 00:47:00;;;;;;;11.15;8.88;;;;;;;10.35;100.00;67918.03;5032735;28;20486;-87
2022/11/04 00:49:25;;;;;;;12.40;8.70;;;;;;;10.36;100.00;67925.06;5027945;28;20046;-86
2022/11/04 00:51:50;;;;;;;12.05;8.98;;;;;;;;;;5030905;28;20117;-86
2022/11/04 00:54:16;;;;;;;12.20;8.18;;;;;;;10.34;100.00;67922.78;5053021;28;20053;-87
2022/11/04 00:56:41;;;;;;;13.13;7.85;;;;;;;10.31;100.00;67919.41;5064335;28;20044;-86
2022/11/04 00:59:07;;;;;;;14.65;9.35;;;;;;;10.28;100.00;67916.00;5044773;28;20387;-85
2022/11/04 01:01:32;;;;;;;15.85;10.35;;;;;;;10.27;100.00;67914.28;5055670;28;20052;-87
2022/11/04 01:03:58;;;;;;;15.55;11.45;;;;;;;10.29;100.00;67919.22;5043677;28;20044;-86
2022/11/04 01:06:25;;;;;;;15.50;11.25;;;;;;;10.26;100.00;67913.69;5028148;28;20421;-86
2022/11/04 01:09:00;;;;;;;15.07;10.82;;;;;;;;;;5035751;28;20029;-86
2022/11/04 01:11:28;;;;;;;15.40;11.88;;;;;;;10.21;100.00;67908.03;5074805;28;20045;-86
2022/11/04 01:13:54;;;;;;;16.98;13.98;;;;;;;10.22;100.00;67908.59;5048218;28;20171;-86
2022/11/04 01:16:19;;;;;;;15.68;11.85;;;;;;;;;;5047107;28;20128;-86
2022/11/04 01:18:45;;;;;;;16.92;12.65;;;;;;;10.20;100.00;67901.00;5046835;28;20072;-86
2022/11/04 01:21:12;;;;;;;18.35;11.43;;;;;;;10.17;100.00;67906.16;5046484;28;20405;-86
2022/11/04 01:23:39;;;;;;;15.35;12.68;;;;;;;10.15;100.00;67901.78;5049937;28;20044;-86
2022/11/04 01:26:06;;;;;;;14.65;10.93;;;;;;;10.12;100.00;67898.38;5042332;28;20045;-86
2022/11/04 01:28:32;;;;;;;13.02;9.13;;;;;;;10.10;100.00;67895.56;5035670;28;20568;-86
2022/11/04 01:30:57;;;;;;;14.48;9.90;;;;;;;;;;5047046;28;20118;-86
2022/11/04 01:33:23;;;;;;;12.23;9.23;;;;;;;10.01;100.00;67888.56;5047574;28;20044;-86
2022/11/04 01:35:49;;;;;;;13.02;9.63;;;;;;;10.01;100.00;67885.91;5049085;28;20037;-86
2022/11/04 01:38:15;;;;;;;13.73;10.63;;;;;;;9.99;100.00;67885.75;5032419;28;20056;-86
2022/11/04 01:40:40;;;;;;;12.35;9.57;;;;;;;;;;5063137;28;20039;-86
2022/11/04 01:43:16;;;;;;;14.32;10.25;;;;;;;;;;5060821;28;20068;-86
2022/11/04 01:45:58;;;;;;;13.02;9.63;;;;;;;9.86;100.00;67868.88;5057263;28;20041;-86
2022/11/04 01:48:31;;;;;;;13.35;9.43;;;;;;;;;;5073210;28;20045;-85
2022/11/04 01:50:58;;;;;;;12.45;8.35;;;;;;;9.78;100.00;67859.81;5054455;28;20075;-85
2022/11/04 01:53:32;;;;;;;13.13;8.98;;;;;;;9.73;100.00;67854.72;5035048;28;20083;-85
2022/11/04 01:56:10;;;;;;;12.73;9.00;;;;;;;;;;5048654;28;20045;-85
2022/11/04 01:58:35;;;;;;;12.57;8.82;;;;;;;;;;5061973;28;20532;-85
2022/11/04 02:01:01;;;;;;;10.15;7.43;;;;;;;9.63;100.00;67846.59;5041316;28;20128;-85
2022/11/04 02:03:43;;;;;;;10.93;7.45;;;;;;;9.60;100.00;67840.53;5043053;28;20083;-85
2022/11/04 02:06:10;;;;;;;12.15;8.38;;;;;;;9.58;100.00;67838.28;5042743;28;20032;-85
2022/11/04 02:08:37;;;;;;;11.38;7.80;;;;;;;9.57;100.00;67837.13;5041017;28;20144;-86
2022/11/04 02:11:03;;;;;;;14.02;9.02;;;;;;;9.54;100.00;67835.84;5026923;28;20585;-85
2022/11/04 02:13:32;;;;;;;12.93;8.95;;;;;;;;;;5026701;28;20124;-86
2022/11/04 02:16:16;;;;;;;12.38;8.10;;;;;;;9.46;100.00;67819.34;5035926;28;20034;-86
2022/11/04 02:18:57;;;;;;;12.57;8.40;;;;;;;9.43;100.00;67821.25;5029780;28;20045;-86
2022/11/04 02:21:43;;;;;;;9.10;6.38;;;;;;;9.36;100.00;67813.91;5037849;28;20045;-86
2022/11/04 02:24:52;;;;;;;7.78;5.65;;;;;;;9.32;100.00;67814.09;5043562;28;20041;-85
2022/11/04 02:27:18;;;;;;;6.95;4.20;;;;;;;;;;5022555;28;20059;-85
2022/11/04 02:29:46;;;;;;;5.37;4.20;;;;;;;;;;5025634;28;20128;-85
2022/11/04 02:32:17;;;;;;;5.05;3.28;;;;;;;9.19;100.00;67794.63;5024679;28;20292;-85
2022/11/04 02:34:45;;;;;;;5.78;3.85;;;;;;;;;;5032445;28;20106;-85
2022/11/04 02:37:30;;;;;;;5.95;4.57;;;;;;;9.12;100.00;67786.69;5035223;28;20135;-85
2022/11/04 02:40:05;;;;;;;6.53;3.72;;;;;;;9.08;100.00;67782.72;5043754;28;20124;-86
2022/11/04 02:42:59;;;;;;;6.95;4.03;;;;;;;9.07;100.00;67781.59;5073795;28;20128;-86
2022/11/04 02:45:45;;;;;;;7.95;4.20;;;;;;;9.04;100.00;67778.75;5030137;28;20111;-85
2022/11/04 02:48:34;;;;;;;7.93;5.40;;;;;;;;;;5042965;28;20056;-85
2022/11/04 02:51:30;;;;;;;8.93;6.75;;;;;;;9.05;100.00;67779.31;5021240;28;20664;-86
2022/11/04 02:54:08;;;;;;;12.18;7.30;;;;;;;9.03;100.00;67777.63;5045015;28;20401;-86
2022/11/04 02:56:39;;;;;;;12.02;7.85;;;;;;;9.06;100.00;67783.09;5050983;28;20045;-85
2022/11/04 02:59:11;;;;;;;13.93;8.75;;;;;;;9.07;100.00;67781.03;5027097;28;20136;-86
2022/11/04 03:01:38;;;;;;;14.68;10.48;;;;;;;;;;5025915;28;20065;-85
2022/11/04 03:04:24;;;;;;;13.32;8.68;;;;;;;9.09;100.00;67785.94;5026808;28;20529;-86
2022/11/04 03:06:49;;;;;;;15.70;11.57;;;;;;;;;;5025537;28;20049;-86
2022/11/04 03:09:17;;;;;;;18.17;12.40;;;;;;;9.16;100.00;67791.78;5040780;28;20438;-85
2022/11/04 03:11:47;;;;;;;18.25;10.88;;;;;;;9.15;100.00;67795.41;5044724;28;20045;-86
2022/11/04 03:14:17;;;;;;;17.05;12.48;;;;;;;9.16;100.00;67791.78;5040403;28;20040;-85
2022/11/04 03:16:47;;;;;;;21.58;13.45;;;;;;;;;;5045330;28;20040;-85
2022/11/04 03:19:25;;;;;;;20.75;13.13;;;;;;;9.23;100.00;67799.16;5041036;28;20407;-85
2022/11/04 03:22:07;;;;;;;19.08;12.63;;;;;;;9.25;100.00;67801.44;5032769;28;20109;-85
2022/11/04 03:24:33;;;;;;;23.10;16.27;;;;;;;;;;5090484;28;20045;-85
2022/11/04 03:26:59;;;;;;;21.08;13.98;;;;;;;9.26;100.00;67803.13;5033380;28;20088;-84
2022/11/04 03:29:47;;;;;;;22.80;15.18;;;;;;;9.30;100.00;67809.75;5034927;28;20575;-85
2022/11/04 03:32:23;;;;;;;21.42;17.05;;;;;;;9.29;100.00;67808.03;5045185;28;20045;-86
2022/11/04 03:34:49;;;;;;;22.48;16.90;;;;;;;9.31;100.00;67802.34;5043614;28;20120;-85
2022/11/04 03:37:15;;;;;;;21.88;13.45;;;;;;;9.32;100.00;67811.44;5036732;28;20534;-85
2022/11/04 03:39:40;;;;;;;25.13;14.25;;;;;;;9.33;100.00;67810.50;5044854;28;20051;-85
2022/11/04 03:42:18;;;;;;;21.48;15.70;;;;;;;9.34;100.00;67816.38;5046677;28;20049;-85
2022/11/04 03:44:52;;;;;;;21.52;14.27;;;;;;;9.32;100.00;67811.44;5043051;28;20060;-85
2022/11/04 03:47:20;;;;;;;19.30;12.07;;;;;;;9.30;100.00;67801.78;5037422;28;20044;-85
2022/11/04 03:49:54;;;;;;;23.80;15.30;;;;;;;9.33;100.00;67809.94;5046210;28;20036;-85
2022/11/04 03:52:20;;;;;;;24.20;15.63;;;;;;;9.34;100.00;67811.06;5046019;28;20041;-85
2022/11/04 03:54:46;;;;;;;27.58;14.70;;;;;;;9.32;100.00;67809.38;5043810;28;20056;-85
2022/11/04 03:57:31;;;;;;;22.75;13.60;;;;;;;9.36;100.00;67818.66;5038848;28;20410;-85
2022/11/04 04:00:06;;;;;;;26.05;14.73;;;;;;;9.34;100.00;67811.63;5041569;28;20103;-85
2022/11/04 04:02:50;;;;;;;23.45;15.70;;;;;;;9.33;100.00;67812.59;5040915;28;20038;-85
2022/11/04 04:05:28;;;;;;;26.58;16.95;;;;;;;9.32;100.00;67809.38;5048615;28;20571;-85
2022/11/04 04:07:59;;;;;;;20.60;13.57;;;;;;;9.32;100.00;67814.69;5051461;28;20056;-85
2022/11/04 04:10:40;;;;;;;23.80;14.60;;;;;;;9.32;100.00;67808.78;5053927;28;20033;-85
2022/11/04 04:13:17;;;;;;;22.15;16.15;;;;;;;9.31;100.00;67807.66;5044385;28;20048;-86
2022/11/04 04:16:03;;;;;;;24.25;16.33;;;;;;;;;;5028736;28;20632;-85
2022/11/04 04:18:37;;;;;;;19.33;12.55;;;;;;;;;;5038681;28;20049;-85
2022/11/04 04:21:05;;;;;;;25.25;16.73;;;;;;;;;;5037531;28;20050;-86
2022/11/04 04:29:05;;;;;;;24.20;15.02;;;;;;;;;;5049215;28;20040;-86
2022/11/04 04:31:49;;;;;;;19.13;13.65;;;;;;;9.28;100.00;67810.13;5037335;28;20045;-85
2022/11/04 04:34:17;;;;;;;22.25;13.93;;;;;;;9.29;100.00;67808.03;5028614;28;20041;-85
2022/11/04 04:37:07;;;;;;;25.15;15.23;;;;;;;9.29;100.00;67808.63;5035027;28;20033;-85
2022/11/04 04:45:35;;;;;;;20.60;14.65;;;;;;;9.25;100.00;67804.09;5041743;28;20120;-85
2022/11/04 04:48:00;;;;;;;20.25;13.50;;;;;;;9.21;100.00;67797.47;5035026;28;20115;-86
2022/11/04 04:50:27;;;;;;;23.55;14.85;;;;;;;;;;5041220;28;20049;-85
2022/11/04 04:52:55;;;;;;;21.10;14.23;;;;;;;9.19;100.00;67794.63;5042336;28;20068;-86
2022/11/04 04:55:21;;;;;;;20.83;14.10;;;;;;;9.18;100.00;67788.75;5036282;28;20041;-85
2022/11/04 04:57:46;;;;;;;21.42;12.48;;;;;;;9.15;100.00;67793.31;5038950;28;20612;-85
2022/11/04 05:00:15;;;;;;;20.95;13.55;;;;;;;9.11;100.00;67786.13;5037832;28;20737;-84
2022/11/04 05:02:41;;;;;;;22.52;14.82;;;;;;;9.09;100.00;67778.56;5034562;28;20038;-84
2022/11/04 05:05:07;;;;;;;24.05;14.25;;;;;;;9.06;100.00;67783.09;5036710;28;20037;-84
2022/11/04 05:07:32;;;;;;;21.48;13.88;;;;;;;9.04;100.00;67778.75;5042024;28;20041;-84
2022/11/04 05:09:58;;;;;;;19.73;13.20;;;;;;;9.05;100.00;67781.97;5032601;28;20079;-84
2022/11/04 05:12:23;;;;;;;21.88;11.98;;;;;;;9.04;100.00;67778.75;5044879;28;20052;-85
2022/11/04 05:14:48;;;;;;;19.27;13.45;;;;;;;9.07;100.00;67776.28;5036168;28;20511;-85
2022/11/04 05:17:14;;;;;;;19.70;12.25;;;;;;;9.07;100.00;67781.59;5039079;28;20045;-85
2022/11/04 05:19:39;;;;;;;21.50;15.30;;;;;;;9.10;100.00;67787.09;5048232;28;20091;-84
2022/11/04 05:22:05;;;;;;;18.25;12.52;;;;;;;;;;5039893;28;20545;-85
2022/11/04 05:24:31;;;;;;;20.90;12.48;;;;;;;9.12;100.00;67786.69;5037706;28;20045;-84
2022/11/04 05:26:56;;;;;;;24.70;13.35;;;;;;;9.12;100.00;67787.28;5036104;28;20044;-84
2022/11/04 05:29:21;;;;;;;21.23;13.25;;;;;;;9.12;100.00;67792.00;5036941;28;20490;-85
2022/11/04 05:31:47;;;;;;;21.67;12.27;;;;;;;9.10;100.00;67784.44;5040909;28;20056;-85
2022/11/04 05:34:13;;;;;;;19.50;13.00;;;;;;;9.09;100.00;67783.88;5039768;28;20052;-86
2022/11/04 05:36:39;;;;;;;18.98;10.60;;;;;;;9.07;100.00;67781.59;5032255;28;20037;-86
2022/11/04 05:39:05;;;;;;;21.65;11.20;;;;;;;;;;5037992;28;20102;-85
2022/11/04 05:41:30;;;;;;;21.40;11.30;;;;;;;9.09;100.00;67783.28;5036452;28;20045;-85
2022/11/04 05:43:58;;;;;;;16.77;10.25;;;;;;;9.07;100.00;67783.69;5035968;28;20201;-86
2022/11/04 05:46:23;;;;;;;17.90;11.55;;;;;;;;;;5038895;28;20144;-85
2022/11/04 05:48:49;;;;;;;22.70;12.00;;;;;;;9.06;100.00;67780.44;5041028;28;20143;-85
2022/11/04 05:51:17;;;;;;;18.80;11.43;;;;;;;9.03;100.00;67780.28;5026621;28;20041;-85
2022/11/04 05:53:42;;;;;;;17.40;10.00;;;;;;;;;;5042711;28;20071;-85
2022/11/04 05:56:08;;;;;;;22.80;12.90;;;;;;;9.02;100.00;67778.59;5043228;28;20053;-85
2022/11/04 05:58:34;;;;;;;22.60;13.30;;;;;;;9.03;100.00;67772.31;5037756;28;20067;-86
2022/11/04 06:01:18;;;;;;;19.73;10.32;;;;;;;;;;5036874;28;20120;-86
2022/11/04 06:03:43;;;;;;;22.58;10.80;;;;;;;8.98;100.00;67771.41;5067283;28;20098;-86
2022/11/04 06:06:08;;;;;;;21.45;10.68;;;;;;;8.98;100.00;67771.41;5036081;28;20033;-86
2022/11/04 06:08:34;;;;;;;19.20;10.50;;;;;;;8.98;100.00;67771.41;5043298;28;20114;-86
2022/11/04 06:10:59;;;;;;;19.05;12.05;;;;;;;8.97;100.00;67772.91;5033951;28;20052;-86
2022/11/04 06:13:25;;;;;;;20.05;10.82;;;;;;;;;;5039167;28;20041;-86
2022/11/04 06:15:50;;;;;;;15.23;8.05;;;;;;;8.99;100.00;67772.53;5036070;28;20495;-86
2022/11/04 06:18:15;;;;;;;15.27;9.48;;;;;;;;;;5035259;28;20045;-86
2022/11/04 06:20:41;;;;;;;13.02;8.07;;;;;;;;;;5038482;28;20056;-86
2022/11/04 06:23:06;;;;;;;15.27;7.93;;;;;;;8.95;100.00;67768.00;5036679;28;20036;-86
2022/11/04 06:25:31;;;;;;;17.40;9.55;;;;;;;;;;5030583;28;20045;-86
2022/11/04 06:27:57;;;;;;;15.65;8.02;;;;;;;;;;5030784;28;20044;-85
2022/11/04 06:30:22;;;;;;;10.32;6.68;;;;;;;8.87;100.00;67759.50;5034466;28;20068;-85
2022/11/04 06:32:48;;;;;;;17.25;8.98;;;;;;;8.89;100.00;67761.19;5025283;28;20039;-85
2022/11/04 06:35:13;;;;;;;18.23;7.47;;;;;;;;;;5034766;28;20110;-86
2022/11/04 06:37:38;;;;;;;15.20;7.65;;;;;;;8.86;100.00;67758.38;5029743;28;20053;-85
2022/11/04 06:40:04;;;;;;;13.40;8.40;;;;;;;8.92;100.00;67764.59;5036365;28;20517;-86
2022/11/04 06:42:29;;;;;;;14.35;8.23;;;;;;;8.93;100.00;67768.94;5042252;28;20041;-87
2022/11/04 06:44:55;;;;;;;14.02;7.05;;;;;;;8.92;100.00;67765.16;5036760;28;20045;-87
2022/11/04 06:47:20;;;;;;;15.18;7.13;;;;;;;8.91;100.00;67766.13;5035754;28;20069;-87
2022/11/04 06:49:45;;;;;;;14.40;7.93;;;;;;;;;;5032344;28;20414;-87
2022/11/04 06:52:10;;;;;;;15.18;7.72;;;;;;;;;;5033573;28;20049;-87
2022/11/04 06:54:36;;;;;;;16.98;7.80;;;;;;;8.88;100.00;67760.06;5045714;28;20057;-87
2022/11/04 06:57:02;;;;;;;12.80;6.55;;;;;;;8.89;100.00;67761.19;5030063;28;20037;-87
2022/11/04 06:59:27;;;;;;;9.43;5.40;;;;;;;8.85;100.00;67756.66;5046739;28;20067;-86
2022/11/04 07:01:53;;;;;;;10.57;6.00;;;;;;;;;;5044079;28;20037;-88
2022/11/04 07:04:18;;;;;;;14.45;7.18;;;;;;;;;;5041063;28;20071;-89
2022/11/04 07:06:43;;;;;;;12.48;7.32;;;;;;;;;;5044251;28;20045;-88
2022/11/04 07:09:11;;;;;;;12.93;7.50;;;;;;;8.82;100.00;67759.69;5044823;28;20506;-88
2022/11/04 07:11:37;;;;;;;14.38;6.78;;;;;;;8.79;100.00;67755.75;5039399;28;20042;-88
2022/11/04 07:14:02;;;;;;;14.95;6.78;;;;;;;8.79;100.00;67751.00;5037947;28;20033;-88
2022/11/04 07:16:28;;;;;;;11.93;6.13;;;;;;;8.79;100.00;67751.00;5046060;28;20602;-89
2022/11/04 07:18:54;;;;;;;10.07;5.57;;;;;;;8.75;100.00;67746.47;5036888;28;20128;-88
2022/11/04 07:21:20;;;;;;;13.65;5.57;;;;;;;8.78;100.00;67749.88;5031036;28;20093;-89
2022/11/04 07:23:45;;;;;;;10.60;6.03;;;;;;;8.81;100.00;67755.34;5034229;28;20028;-90
2022/11/04 07:26:11;;;;;;;10.95;5.53;;;;;;;8.79;100.00;67750.44;5038224;28;20037;-88
2022/11/04 07:28:38;;;;;;;11.80;6.63;;;;;;;8.77;100.00;67742.84;5035282;28;20045;-88
2022/11/04 07:31:06;;;;;;;13.70;6.00;;;;;;;8.84;100.00;67758.19;5034456;28;20037;-88
2022/11/04 07:33:32;;;;;;;15.10;6.32;;;;;;;;;;5036481;28;20111;-88
2022/11/04 07:36:01;;;;;;;11.23;6.38;;;;;;;8.88;100.00;67760.63;5045487;28;20069;-88
2022/11/04 07:38:27;;;;;;;;;;;;;;;8.89;100.00;67761.78;5048002;28;20041;-88
2022/11/04 07:40:52;;;;;;;11.70;6.15;;;;;;;8.84;100.00;67758.19;5043755;28;19935;-88
2022/11/04 07:43:17;;;;;;;13.85;6.35;;;;;;;8.82;100.00;67759.13;5041681;28;20111;-88
2022/11/04 07:45:43;;;;;;;12.18;5.30;;;;;;;8.84;100.00;67756.09;5037467;28;20402;-88
2022/11/04 07:48:08;;;;;;;11.07;5.53;;;;;;;8.85;100.00;67757.22;5040136;28;20041;-88
2022/11/04 07:50:33;;;;;;;12.13;5.50;;;;;;;;;;5046407;28;20040;-88
2022/11/04 07:52:59;;;;;;;13.70;5.97;;;;;;;8.85;100.00;67756.66;5048638;28;20764;-89
2022/11/04 07:55:25;;;;;;;15.18;5.75;;;;;;;8.82;100.00;67754.38;5046326;28;20120;-88
2022/11/04 07:57:53;;;;;;;11.88;4.80;;;;;;;8.82;100.00;67753.81;5051655;28;20199;-88
2022/11/04 08:00:19;;;;;;;15.43;5.60;;;;;;;8.82;100.00;67757.03;5047081;28;20041;-88
2022/11/04 08:02:45;;;;;;;10.45;4.95;;;;;;;8.84;100.00;67755.53;5037957;28;20538;-88
2022/11/04 08:05:14;;;;;;;12.48;5.40;;;;;;;8.85;100.00;67757.22;5028858;28;20041;-89
2022/11/04 08:07:40;;;;;;;;;;;;;;;8.85;100.00;67759.88;5034600;28;20049;-89
2022/11/04 08:10:06;;;;;;;17.02;6.93;;;;;;;;;;5047151;28;20337;-88
2022/11/04 08:12:32;;;;;;;13.40;6.75;;;;;;;8.77;100.00;67751.38;5033893;28;20040;-88
2022/11/04 08:14:58;;;;;;;16.83;5.95;;;;;;;8.84;100.00;67755.53;5040754;28;20460;-89
2022/11/04 08:17:24;;;;;;;15.32;6.22;;;;;;;;;;5031611;28;20041;-88
2022/11/04 08:19:49;;;;;;;11.23;6.18;;;;;;;8.86;100.00;67758.38;5030821;28;20048;-89
2022/11/04 08:22:14;;;;;;;12.73;5.22;;;;;;;8.91;100.00;67758.72;5048557;28;20049;-87
2022/11/04 08:24:40;;;;;;;12.77;5.53;;;;;;;8.96;100.00;67775.00;5048231;28;20152;-89
2022/11/04 08:27:06;;;;;;;13.82;5.72;;;;;;;;;;5045357;28;20548;-89
2022/11/04 08:29:33;;;;;;;13.23;5.10;;;;;;;9.01;100.00;67774.81;5032544;28;20533;-89
2022/11/04 08:31:58;;;;;;;10.52;5.35;;;;;;;9.03;100.00;67777.63;5054811;28;20037;-89
2022/11/04 08:34:23;;;;;;;12.95;5.20;;;;;;;9.08;100.00;67784.81;5055628;28;20127;-89
2022/11/04 08:36:51;;;;;;;10.85;5.03;;;;;;;9.13;100.00;67787.84;5068572;28;20099;-89
2022/11/04 08:39:17;;;;;;;9.70;4.65;;;;;;;9.17;100.00;67792.91;5039716;28;20060;-89
2022/11/04 08:41:44;;;;;;;10.10;5.22;;;;;;;9.23;100.00;67799.16;5057532;28;20037;-88
2022/11/04 08:44:10;;;;;;;11.80;4.88;;;;;;;9.31;100.00;67807.66;5049729;28;20427;-88
2022/11/04 08:46:37;;;;;;;13.65;5.03;;;;;;;9.36;100.00;67816.56;5048202;28;20354;-88
2022/11/04 08:49:03;;;;;;;9.73;4.18;;;;;;;9.40;100.00;67812.56;5046429;28;20052;-88
2022/11/04 08:51:31;;;;;;;11.27;3.88;;;;;;;9.41;100.00;67819.00;5038943;28;20037;-88
2022/11/04 08:53:59;;;;;;;8.23;3.80;;;;;;;9.44;100.00;67825.63;5037956;28;20037;-88
2022/11/04 08:56:30;;;;;;;8.43;4.10;;;;;;;9.43;100.00;67821.81;5028809;28;20044;-89
2022/11/04 08:59:01;;;;;;;11.55;4.10;;;;;;;9.45;100.00;67826.19;5030371;28;20585;-89
2022/11/04 09:01:28;;;;;;;10.85;4.43;;;;;;;9.46;100.00;67819.34;5042233;28;20582;-88
2022/11/04 09:03:53;;;;;;;10.40;4.50;;;;;;;9.49;100.00;67823.34;5029005;28;20110;-88
2022/11/04 09:06:27;;;;;;;9.60;4.00;;;;;;;9.51;100.00;67829.78;5042081;28;20514;-88
2022/11/04 09:09:00;;;;;;;13.02;5.28;;;;;;;9.54;100.00;67833.75;5043726;28;20047;-88
2022/11/04 09:11:25;;;;;;;6.30;3.88;;;;;;;;;;5039752;28;20060;-88
2022/11/04 09:13:52;;;;;;;12.48;3.72;;;;;;;;;;5042745;28;20041;-88
2022/11/04 09:16:17;;;;;;;9.48;4.07;;;;;;;;;;5037360;28;20506;-88
2022/11/04 09:18:42;;;;;;;12.07;4.05;;;;;;;9.79;100.00;67860.97;5029043;28;20084;-89
2022/11/04 09:21:09;;;;;;;7.85;4.38;;;;;;;9.86;100.00;67864.13;5030916;28;20113;-88
2022/11/04 09:23:35;;;;;;;12.25;5.20;;;;;;;9.98;100.00;67881.94;5040172;28;20044;-89
2022/11/04 09:26:18;;;;;;;10.90;4.18;;;;;;;;;;5038057;28;20037;-89
2022/11/04 09:28:44;;;;;;;8.27;4.03;;;;;;;10.07;100.00;67887.41;5024890;28;20514;-88
2022/11/04 09:31:17;;;;;;;12.75;4.70;;;;;;;10.20;100.00;67906.31;5030134;28;20053;-89
2022/11/04 09:33:43;;;;;;;9.07;4.05;;;;;;;;;;5046878;28;20057;-88
2022/11/04 09:36:09;;;;;;;11.90;4.47;;;;;;;;;;5028269;28;20121;-89
2022/11/04 09:38:36;;;;;;;9.07;4.35;;;;;;;10.29;100.00;67921.88;5028729;28;20049;-89
2022/11/04 09:41:25;;;;;;;7.47;4.15;;;;;;;10.25;100.00;67912.00;5041029;28;20063;-89
2022/11/04 09:44:17;;;;;;;9.88;4.38;;;;;;;10.25;100.00;67912.56;5063021;28;20041;-89
2022/11/04 09:46:47;;;;;;;15.15;4.85;;;;;;;10.32;100.00;67919.97;5042125;28;20048;-89
2022/11/04 09:49:12;;;;;;;10.25;4.60;;;;;;;10.32;100.00;67915.19;5038877;28;20746;-89
2022/11/04 09:51:40;;;;;;;9.10;4.28;;;;;;;10.33;100.00;67921.09;5044616;28;20131;-88
2022/11/04 09:54:26;;;;;;;11.85;5.22;;;;;;;;;;5041335;28;20125;-89
2022/11/04 09:56:56;;;;;;;9.15;4.40;;;;;;;10.39;100.00;67928.47;5056728;28;20042;-89
2022/11/04 09:59:27;;;;;;;12.52;5.03;;;;;;;;;;5025710;28;20041;-89
2022/11/04 10:02:02;;;;;;;12.88;4.70;;;;;;;10.47;100.00;67931.66;5029606;28;20037;-89
2022/11/04 10:04:56;;;;;;;11.15;5.63;;;;;;;10.48;100.00;67940.78;5039652;28;20114;-89
2022/11/04 10:07:50;;;;;;;12.27;4.55;;;;;;;10.54;100.00;67944.38;5045738;28;20056;-89
2022/11/04 10:10:34;;;;;;;12.57;5.13;;;;;;;;;;5025774;28;20433;-89
2022/11/04 10:13:26;;;;;;;9.98;5.13;;;;;;;10.60;100.00;67951.16;5048203;28;20044;-89
2022/11/04 10:16:00;;;;;;;10.30;4.97;;;;;;;10.64;100.00;67949.81;5055862;28;20041;-89
2022/11/04 10:18:51;;;;;;;11.45;5.28;;;;;;;10.73;100.00;67965.34;5038822;28;20049;-89
2022/11/04 10:21:22;;;;;;;12.10;5.45;;;;;;;10.84;100.00;67977.84;5035487;28;20068;-89
2022/11/04 10:24:07;;;;;;;10.95;5.22;;;;;;;10.85;100.00;67978.97;5042467;28;20103;-89
2022/11/04 10:26:38;;;;;;;13.13;5.32;;;;;;;10.92;100.00;67986.91;5046195;28;20094;-89
2022/11/04 10:29:05;;;;;;;12.98;5.80;;;;;;;;;;5038222;28;20038;-89
2022/11/04 10:31:36;;;;;;;11.40;4.38;;;;;;;11.08;100.00;68004.53;5018898;28;20041;-89
2022/11/04 10:34:07;;;;;;;12.20;5.95;;;;;;;;;;5053213;28;20029;-89
2022/11/04 10:36:34;;;;;;;11.95;5.07;;;;;;;11.20;100.00;68017.56;5025339;28;20041;-89
2022/11/04 10:39:03;;;;;;;9.50;5.20;;;;;;;11.23;100.00;68026.31;5029660;28;20128;-89
2022/11/04 10:41:32;;;;;;;13.40;5.68;;;;;;;;;;5038343;28;20045;-90
2022/11/04 10:44:07;;;;;;;14.30;5.88;;;;;;;11.32;99.06;68025.31;5029528;28;20397;-89
2022/11/04 10:46:51;;;;;;;9.75;5.40;;;;;;;;;;5029860;28;20045;-89
2022/11/04 10:49:25;;;;;;;9.23;4.90;;;;;;;11.40;98.05;68039.72;5032826;28;20049;-89
2022/11/04 10:51:52;;;;;;;9.63;4.47;;;;;;;11.25;97.75;68026.50;5044934;28;20044;-89
2022/11/04 10:54:18;;;;;;;11.50;5.35;;;;;;;11.33;99.46;68026.44;5045274;28;20053;-89
2022/11/04 10:56:49;;;;;;;14.30;4.97;;;;;;;11.38;98.38;68038.00;5032850;28;20628;-89
2022/11/04 10:59:28;;;;;;;11.50;5.03;;;;;;;;;;5040637;28;20034;-90
2022/11/04 11:01:54;;;;;;;;;;;;;;;11.68;96.93;68071.53;5048622;28;20098;-89
2022/11/04 11:04:37;;;;;;;11.70;5.53;;;;;;;11.72;98.36;68070.16;5038427;28;19922;-90
2022/11/04 11:07:07;;;;;;;12.55;6.70;;;;;;;11.64;97.88;68066.41;5041924;28;20087;-89
2022/11/04 11:09:41;;;;;;;12.32;6.72;;;;;;;11.56;97.48;68057.31;5037585;28;20764;-89
2022/11/04 11:12:13;;;;;;;14.63;6.55;;;;;;;11.69;99.56;68072.09;5036952;28;20041;-89
2022/11/04 11:14:40;;;;;;;9.98;6.10;;;;;;;11.78;97.35;68074.31;5055534;28;20575;-88
2022/11/04 11:17:19;;;;;;;12.23;5.45;;;;;;;11.81;96.59;68088.38;5045462;28;20152;-89
2022/11/04 11:19:55;;;;;;;16.25;5.10;;;;;;;;;;5071052;28;20065;-89
2022/11/04 11:22:36;;;;;;;13.73;5.68;;;;;;;11.80;96.28;68087.25;5034776;28;20084;-89
2022/11/04 11:25:14;;;;;;;12.75;5.75;;;;;;;11.78;96.66;68076.41;5041821;28;20044;-89
2022/11/04 11:27:40;;;;;;;11.35;5.40;;;;;;;;;;5034701;28;20072;-89
2022/11/04 11:30:18;;;;;;;15.02;5.93;;;;;;;;;;5030025;28;20041;-89
2022/11/04 11:32:43;;;;;;;12.02;5.28;;;;;;;11.61;96.93;68063.00;5045150;28;20048;-89
2022/11/04 11:35:17;;;;;;;11.82;6.10;;;;;;;11.62;96.94;68064.13;5048265;28;20041;-89
2022/11/04 11:37:46;;;;;;;16.02;5.10;;;;;;;11.50;95.72;68051.63;5048436;28;20045;-89
2022/11/04 11:40:26;;;;;;;12.07;5.65;;;;;;;11.82;96.95;68086.84;5050746;28;20041;-89
2022/11/04 11:42:51;;;;;;;10.02;5.18;;;;;;;;;;5061969;28;20103;-89
2022/11/04 11:45:17;;;;;;;14.05;5.03;;;;;;;;;;5035085;28;20037;-90
2022/11/04 11:47:43;;;;;;;8.95;4.85;;;;;;;12.35;93.31;68145.97;5040203;28;20041;-89
2022/11/04 11:50:15;;;;;;;12.25;5.07;;;;;;;;;;5035515;28;20393;-89
2022/11/04 11:52:42;;;;;;;13.70;5.07;;;;;;;12.53;93.28;68160.50;5038895;28;20064;-89
2022/11/04 11:55:35;;;;;;;7.70;4.80;;;;;;;12.59;91.62;68167.31;5036260;28;20049;-89
2022/11/04 11:58:12;;;;;;;12.65;4.80;;;;;;;12.46;90.30;68157.91;5040788;28;20054;-89
2022/11/04 12:00:49;;;;;;;12.65;4.82;;;;;;;12.54;91.82;68166.41;5031141;28;20473;-89
2022/11/04 12:03:31;;;;;;;7.57;4.50;;;;;;;12.82;89.55;68200.91;5031091;28;20061;-89
2022/11/04 12:06:01;;;;;;;12.52;5.30;;;;;;;;;;5049237;28;20041;-89
2022/11/04 12:08:34;;;;;;;12.02;5.10;;;;;;;;;;5052309;28;20428;-89
2022/11/04 12:11:07;;;;;;;10.57;5.47;;;;;;;;;;5051175;28;20067;-90
2022/11/04 12:13:41;;;;;;;14.40;6.05;;;;;;;12.88;89.71;68205.06;5041347;28;20506;-89
2022/11/04 12:16:28;;;;;;;7.88;4.75;;;;;;;;;;5047164;28;20053;-89
2022/11/04 12:19:05;;;;;;;11.05;5.82;;;;;;;;;;5040927;28;20092;-89
2022/11/04 12:21:34;;;;;;;11.90;6.88;;;;;;;12.78;89.83;68193.13;5043130;28;20395;-90
2022/11/04 12:24:38;;;;;;;10.13;5.85;;;;;;;12.77;91.26;68192.56;5029745;28;20125;-89
2022/11/04 12:27:17;;;;;;;10.80;5.40;;;;;;;12.83;89.50;68194.03;5054671;28;20095;-90
2022/11/04 12:29:51;;;;;;;9.70;5.45;;;;;;;;;;5041417;28;20558;-91
2022/11/04 12:32:28;;;;;;;11.82;6.00;;;;;;;;;;5050574;28;20053;-91
2022/11/04 12:35:13;;;;;;;10.40;5.55;;;;;;;;;;5048307;28;20049;-91
2022/11/04 12:38:03;;;;;;;10.40;5.90;;;;;;;13.37;91.56;68259.09;5039168;28;20080;-91
2022/11/04 12:40:28;;;;;;;12.45;5.55;;;;;;;;;;5004053;28;20153;-90
2022/11/04 12:43:35;;;;;;;15.85;6.43;;;;;;;13.41;89.48;68258.31;5009835;28;20041;-89
2022/11/04 12:46:10;;;;;;;15.88;5.88;;;;;;;;;;4949899;28;20033;-90
2022/11/04 12:48:47;;;;;;;10.63;6.22;;;;;;;13.88;89.68;68310.06;4980420;28;20073;-90